Time;durP1;ratioP1;P1;durP2;ratioP2;P2;SDS_P1;SDS_P2;PMS_P1;PMS_P2;Temp;Humidity;BMP_temperature;BMP_pressure;BME280_temperature;BME280_humidity;BME280_pressure;Samples;Min_cycle;Max_cycle;Signal;HPM_P1;HPM_P2
2022/02/22 00:01:57;;;;;;;0.20;0.20;;;;;;;;;;5022803;28;20056;-81
2022/02/22 00:04:23;;;;;;;0.20;0.20;;;;;;;;;;5022640;28;20079;-81
2022/02/22 00:06:49;;;;;;;0.20;0.20;;;;;;;;;;5022894;28;20359;-79
2022/02/22 00:09:15;;;;;;;0.20;0.20;;;;;;;;;;5022452;28;20045;-79
2022/02/22 00:11:41;;;;;;;0.20;0.20;;;;;;;;;;5021969;28;20037;-79
2022/02/22 00:14:07;;;;;;;0.20;0.20;;;;;;;;;;5021205;28;20686;-79
2022/02/22 00:16:33;;;;;;;0.20;0.20;;;;;;;;;;5021847;28;20037;-79
2022/02/22 00:18:59;;;;;;;0.20;0.20;;;;;;;;;;5022037;28;20037;-80
2022/02/22 00:21:25;;;;;;;0.30;0.30;;;;;;;;;;5020679;28;20033;-79
2022/02/22 00:23:51;;;;;;;0.20;0.20;;;;;;;;;;5021692;28;20310;-79
2022/02/22 00:26:18;;;;;;;0.20;0.20;;;;;;;;;;5022106;28;20044;-79
2022/02/22 00:28:44;;;;;;;0.40;0.40;;;;;;;;;;5022297;28;20022;-79
2022/02/22 00:31:10;;;;;;;0.20;0.20;;;;;;;;;;5021408;28;20036;-79
2022/02/22 00:33:36;;;;;;;0.20;0.20;;;;;;;;;;5022350;28;20040;-79
2022/02/22 00:36:02;;;;;;;0.30;0.30;;;;;;;;;;5021805;28;20501;-77
2022/02/22 00:38:28;;;;;;;0.20;0.20;;;;;;;;;;5025985;28;20689;-77
2022/02/22 00:40:54;;;;;;;0.22;0.22;;;;;;;;;;5026177;28;20048;-78
2022/02/22 00:43:20;;;;;;;0.30;0.30;;;;;;;;;;5026180;28;20156;-78
2022/02/22 00:45:46;;;;;;;0.20;0.20;;;;;;;;;;5026540;28;20533;-78
2022/02/22 00:48:12;;;;;;;0.20;0.20;;;;;;;;;;5023820;28;20132;-78
2022/02/22 00:50:38;;;;;;;0.20;0.20;;;;;;;;;;5026372;28;20030;-77
2022/02/22 00:53:04;;;;;;;0.20;0.20;;;;;;;;;;5025696;28;20463;-76
2022/02/22 00:55:32;;;;;;;0.20;0.20;;;;;;;;;;5030175;28;20390;-77
2022/02/22 00:57:58;;;;;;;0.20;0.20;;;;;;;;;;5025462;28;20073;-77
2022/02/22 01:00:24;;;;;;;0.20;0.20;;;;;;;;;;5024885;28;20028;-76
2022/02/22 01:02:51;;;;;;;0.20;0.20;;;;;;;;;;5025938;28;20311;-76
2022/02/22 01:05:17;;;;;;;0.20;0.20;;;;;;;;;;5021741;28;20667;-77
2022/02/22 01:07:43;;;;;;;0.20;0.20;;;;;;;;;;5025965;28;20071;-77
2022/02/22 01:10:10;;;;;;;0.30;0.30;;;;;;;;;;5026037;28;20083;-77
2022/02/22 01:12:36;;;;;;;0.20;0.20;;;;;;;;;;5022276;28;20026;-78
2022/02/22 01:15:02;;;;;;;0.20;0.20;;;;;;;;;;5025553;28;20041;-78
2022/02/22 01:17:28;;;;;;;0.20;0.20;;;;;;;;;;5025096;28;20076;-78
2022/02/22 01:19:54;;;;;;;0.20;0.20;;;;;;;;;;5025139;28;20025;-78
2022/02/22 01:22:21;;;;;;;0.20;0.20;;;;;;;;;;5025496;28;20033;-78
2022/02/22 01:24:47;;;;;;;0.20;0.20;;;;;;;;;;5023949;28;20034;-78
2022/02/22 01:27:13;;;;;;;0.20;0.20;;;;;;;;;;5026017;28;20036;-78
2022/02/22 01:29:39;;;;;;;0.20;0.20;;;;;;;;;;5025695;28;20032;-78
2022/02/22 01:32:05;;;;;;;0.20;0.20;;;;;;;;;;5025398;28;20852;-77
2022/02/22 01:34:32;;;;;;;0.20;0.20;;;;;;;;;;5025757;28;20561;-79
2022/02/22 01:36:58;;;;;;;0.20;0.20;;;;;;;;;;5025380;28;20049;-78
2022/02/22 01:39:24;;;;;;;0.20;0.20;;;;;;;;;;5025869;28;20033;-78
2022/02/22 01:41:50;;;;;;;0.20;0.20;;;;;;;;;;5025172;28;20120;-78
2022/02/22 01:44:16;;;;;;;0.20;0.20;;;;;;;;;;5024699;28;20158;-80
2022/02/22 01:46:53;;;;;;;0.20;0.20;;;;;;;;;;5023986;28;20033;-79
2022/02/22 01:49:19;;;;;;;;;;;;;;;;;;5023324;28;20029;-79
2022/02/22 01:51:45;;;;;;;0.20;0.20;;;;;;;;;;5025481;28;19913;-80
2022/02/22 01:54:11;;;;;;;0.20;0.20;;;;;;;;;;5026500;28;20083;-79
2022/02/22 01:56:38;;;;;;;0.25;0.25;;;;;;;;;;5029301;28;20029;-78
2022/02/22 01:59:04;;;;;;;0.30;0.30;;;;;;;;;;5025066;28;20045;-78
2022/02/22 02:01:30;;;;;;;0.20;0.20;;;;;;;;;;5025381;28;20091;-78
2022/02/22 02:03:56;;;;;;;0.30;0.30;;;;;;;;;;5025097;28;20025;-78
2022/02/22 02:06:22;;;;;;;0.30;0.30;;;;;;;;;;5025515;28;20037;-78
2022/02/22 02:08:48;;;;;;;0.20;0.20;;;;;;;;;;5024530;28;20061;-78
2022/02/22 02:11:14;;;;;;;0.20;0.20;;;;;;;;;;5024501;28;20071;-79
2022/02/22 02:13:40;;;;;;;0.20;0.20;;;;;;;;;;5020305;28;20036;-78
2022/02/22 02:16:07;;;;;;;0.20;0.20;;;;;;;;;;5024552;28;20038;-77
2022/02/22 02:18:33;;;;;;;;;;;;;;;;;;5025694;28;20056;-78
2022/02/22 02:21:00;;;;;;;0.20;0.20;;;;;;;;;;5020344;28;19948;-78
2022/02/22 02:23:26;;;;;;;0.10;0.10;;;;;;;;;;5024352;28;20029;-78
2022/02/22 02:25:52;;;;;;;0.20;0.20;;;;;;;;;;5024755;28;20037;-79
2022/02/22 02:28:18;;;;;;;0.30;0.30;;;;;;;;;;5024840;28;20377;-78
2022/02/22 02:30:44;;;;;;;0.20;0.20;;;;;;;;;;5025123;28;20694;-78
2022/02/22 02:33:10;;;;;;;0.20;0.20;;;;;;;;;;5024375;28;20043;-78
2022/02/22 02:35:36;;;;;;;0.20;0.20;;;;;;;;;;5023146;28;20081;-77
2022/02/22 02:38:03;;;;;;;0.20;0.20;;;;;;;;;;5021491;28;20460;-78
2022/02/22 02:40:29;;;;;;;0.20;0.20;;;;;;;;;;5021958;28;20363;-78
2022/02/22 02:42:55;;;;;;;0.30;0.30;;;;;;;;;;5023257;28;20044;-78
2022/02/22 02:45:22;;;;;;;0.20;0.20;;;;;;;;;;5021739;28;20594;-77
2022/02/22 02:47:48;;;;;;;0.20;0.20;;;;;;;;;;5021056;28;20071;-77
2022/02/22 02:50:14;;;;;;;0.20;0.20;;;;;;;;;;5023919;28;20025;-77
2022/02/22 02:52:40;;;;;;;0.20;0.20;;;;;;;;;;5023693;28;20025;-78
2022/02/22 02:55:06;;;;;;;0.20;0.20;;;;;;;;;;5026412;28;20025;-78
2022/02/22 02:57:32;;;;;;;0.20;0.20;;;;;;;;;;5023781;28;20776;-78
2022/02/22 02:59:58;;;;;;;0.20;0.20;;;;;;;;;;5022628;28;20025;-78
2022/02/22 03:02:24;;;;;;;0.20;0.20;;;;;;;;;;5022905;28;20033;-78
2022/02/22 03:04:51;;;;;;;0.30;0.30;;;;;;;;;;5022624;28;20022;-82
2022/02/22 03:07:17;;;;;;;0.20;0.20;;;;;;;;;;5023414;28;20037;-82
2022/02/22 03:09:43;;;;;;;0.20;0.20;;;;;;;;;;5023344;28;20851;-82
2022/02/22 03:12:09;;;;;;;0.20;0.20;;;;;;;;;;5023943;28;20021;-82
2022/02/22 03:14:35;;;;;;;0.30;0.30;;;;;;;;;;5023059;28;20583;-82
2022/02/22 03:17:01;;;;;;;0.20;0.20;;;;;;;;;;5022162;28;20042;-83
2022/02/22 03:19:27;;;;;;;0.30;0.30;;;;;;;;;;5021478;28;20137;-80
2022/02/22 03:21:53;;;;;;;0.30;0.30;;;;;;;;;;5022914;28;20108;-81
2022/02/22 03:24:19;;;;;;;0.30;0.30;;;;;;;;;;5023426;28;20821;-81
2022/02/22 03:26:45;;;;;;;0.30;0.30;;;;;;;;;;5022091;28;20118;-81
2022/02/22 03:29:11;;;;;;;0.30;0.30;;;;;;;;;;5022851;28;20087;-81
2022/02/22 03:31:37;;;;;;;0.30;0.30;;;;;;;;;;5022351;28;20820;-81
2022/02/22 03:34:03;;;;;;;0.20;0.20;;;;;;;;;;5021618;28;20511;-81
2022/02/22 03:36:30;;;;;;;0.30;0.30;;;;;;;;;;5022104;28;20083;-81
2022/02/22 03:38:56;;;;;;;0.20;0.20;;;;;;;;;;5020667;28;20030;-81
2022/02/22 03:41:23;;;;;;;0.20;0.20;;;;;;;;;;5020615;28;20033;-82
2022/02/22 03:43:49;;;;;;;0.30;0.30;;;;;;;;;;5020624;28;20118;-82
2022/02/22 03:46:16;;;;;;;0.20;0.20;;;;;;;;;;5020342;28;20045;-82
2022/02/22 03:48:42;;;;;;;0.20;0.20;;;;;;;;;;5025592;28;20025;-83
2022/02/22 03:51:08;;;;;;;0.30;0.30;;;;;;;;;;5034025;28;20029;-84
2022/02/22 03:53:34;;;;;;;0.30;0.30;;;;;;;;;;5027266;28;20057;-84
2022/02/22 03:56:00;;;;;;;0.20;0.20;;;;;;;;;;5028342;28;20518;-86
2022/02/22 03:58:26;;;;;;;0.25;0.25;;;;;;;;;;5022746;28;20041;-86
2022/02/22 04:00:52;;;;;;;0.30;0.30;;;;;;;;;;5022881;28;20028;-85
2022/02/22 04:03:18;;;;;;;0.20;0.20;;;;;;;;;;5029679;28;20120;-85
2022/02/22 04:05:46;;;;;;;0.20;0.20;;;;;;;;;;5024354;28;20076;-81
2022/02/22 04:08:12;;;;;;;0.20;0.20;;;;;;;;;;5015317;28;20021;-78
2022/02/22 04:10:38;;;;;;;0.30;0.30;;;;;;;;;;5022992;28;20036;-79
2022/02/22 04:13:04;;;;;;;0.20;0.20;;;;;;;;;;5023078;28;20022;-79
2022/02/22 04:15:30;;;;;;;0.20;0.20;;;;;;;;;;5023450;28;20029;-78
2022/02/22 04:17:56;;;;;;;0.20;0.20;;;;;;;;;;5022621;28;20515;-79
2022/02/22 04:20:22;;;;;;;0.20;0.20;;;;;;;;;;5023572;28;20138;-79
2022/02/22 04:22:49;;;;;;;0.30;0.30;;;;;;;;;;5022681;28;20108;-78
2022/02/22 04:25:15;;;;;;;0.22;0.22;;;;;;;;;;5022660;28;20338;-79
2022/02/22 04:27:41;;;;;;;0.20;0.20;;;;;;;;;;5021613;28;20033;-81
2022/02/22 04:30:08;;;;;;;0.20;0.20;;;;;;;;;;5022757;28;20037;-81
2022/02/22 04:32:34;;;;;;;;;;;;;;;;;;5018887;28;20044;-80
2022/02/22 04:35:00;;;;;;;0.30;0.30;;;;;;;;;;5020775;28;20670;-80
2022/02/22 04:37:26;;;;;;;0.20;0.20;;;;;;;;;;5022613;28;20048;-80
2022/02/22 04:39:52;;;;;;;0.20;0.20;;;;;;;;;;5022717;28;20123;-80
2022/02/22 04:42:19;;;;;;;0.20;0.20;;;;;;;;;;5022640;28;20076;-80
2022/02/22 04:44:45;;;;;;;0.20;0.20;;;;;;;;;;5022523;28;20842;-81
2022/02/22 04:47:11;;;;;;;0.30;0.30;;;;;;;;;;5017936;28;20061;-80
2022/02/22 04:49:37;;;;;;;0.20;0.20;;;;;;;;;;5021782;28;20022;-80
2022/02/22 04:52:04;;;;;;;0.30;0.30;;;;;;;;;;5020313;28;20041;-79
2022/02/22 04:54:30;;;;;;;0.40;0.40;;;;;;;;;;5023915;28;20037;-79
2022/02/22 04:56:56;;;;;;;0.30;0.30;;;;;;;;;;5021822;28;20029;-78
2022/02/22 04:59:24;;;;;;;0.30;0.30;;;;;;;;;;5022171;28;20049;-78
2022/02/22 05:01:50;;;;;;;0.30;0.30;;;;;;;;;;5022138;28;20284;-78
2022/02/22 05:04:16;;;;;;;0.20;0.20;;;;;;;;;;5022263;28;20026;-79
2022/02/22 05:06:43;;;;;;;0.30;0.30;;;;;;;;;;5022388;28;20041;-80
2022/02/22 05:09:09;;;;;;;0.30;0.30;;;;;;;;;;5021604;28;20025;-80
2022/02/22 05:11:35;;;;;;;0.30;0.30;;;;;;;;;;5018316;28;20554;-81
2022/02/22 05:14:04;;;;;;;0.30;0.30;;;;;;;;;;5020480;28;20033;-80
2022/02/22 05:16:32;;;;;;;0.30;0.30;;;;;;;;;;5017806;28;20049;-81
2022/02/22 05:18:58;;;;;;;0.20;0.20;;;;;;;;;;5022046;28;20025;-81
2022/02/22 05:21:24;;;;;;;0.30;0.30;;;;;;;;;;5025324;28;20033;-81
2022/02/22 05:23:50;;;;;;;0.30;0.30;;;;;;;;;;5025582;28;20041;-80
2022/02/22 05:26:16;;;;;;;0.20;0.20;;;;;;;;;;5025276;28;20088;-80
2022/02/22 05:28:44;;;;;;;0.20;0.20;;;;;;;;;;5025832;28;20112;-80
2022/02/22 05:31:12;;;;;;;0.20;0.20;;;;;;;;;;5010207;28;20490;-80
2022/02/22 05:33:38;;;;;;;0.20;0.20;;;;;;;;;;5021884;28;20436;-79
2022/02/22 05:36:04;;;;;;;0.20;0.20;;;;;;;;;;5025381;28;20516;-81
2022/02/22 05:38:30;;;;;;;0.20;0.20;;;;;;;;;;5025175;28;20037;-80
2022/02/22 05:40:56;;;;;;;0.20;0.20;;;;;;;;;;5025302;28;20065;-82
2022/02/22 05:43:22;;;;;;;0.30;0.30;;;;;;;;;;5025497;28;20791;-84
2022/02/22 05:45:49;;;;;;;0.20;0.20;;;;;;;;;;5025812;28;20052;-82
2022/02/22 05:48:15;;;;;;;0.20;0.20;;;;;;;;;;5025940;28;20040;-84
2022/02/22 05:50:41;;;;;;;0.20;0.20;;;;;;;;;;5025313;28;20295;-81
2022/02/22 05:53:07;;;;;;;0.20;0.20;;;;;;;;;;5023664;28;20920;-80
2022/02/22 05:55:33;;;;;;;0.30;0.30;;;;;;;;;;5025023;28;20055;-80
2022/02/22 05:57:59;;;;;;;0.20;0.20;;;;;;;;;;5025062;28;20516;-81
2022/02/22 06:00:26;;;;;;;0.20;0.20;;;;;;;;;;5024419;28;20034;-82
2022/02/22 06:02:52;;;;;;;0.20;0.20;;;;;;;;;;5022200;28;20367;-82
2022/02/22 06:05:18;;;;;;;0.20;0.20;;;;;;;;;;5025101;28;20125;-83
2022/02/22 06:07:44;;;;;;;0.20;0.20;;;;;;;;;;5024282;28;20030;-84
2022/02/22 06:10:13;;;;;;;0.40;0.40;;;;;;;;;;5024989;28;20083;-89
2022/02/22 06:12:40;;;;;;;0.20;0.20;;;;;;;;;;5024555;28;20040;-82
2022/02/22 06:15:06;;;;;;;0.30;0.30;;;;;;;;;;5021897;28;20495;-84
2022/02/22 06:17:38;;;;;;;0.30;0.30;;;;;;;;;;5022230;28;20136;-83
2022/02/22 06:20:04;;;;;;;0.20;0.20;;;;;;;;;;5022242;28;20120;-84
2022/02/22 06:22:30;;;;;;;0.40;0.40;;;;;;;;;;5023694;28;20055;-84
2022/02/22 06:24:56;;;;;;;0.30;0.30;;;;;;;;;;5021192;28;20029;-84
2022/02/22 06:27:22;;;;;;;0.30;0.30;;;;;;;;;;5020504;28;20095;-84
2022/02/22 06:29:48;;;;;;;0.30;0.30;;;;;;;;;;5021784;28;20091;-83
2022/02/22 06:32:14;;;;;;;0.20;0.20;;;;;;;;;;5021344;28;20021;-83
2022/02/22 06:34:42;;;;;;;0.30;0.30;;;;;;;;;;5023955;28;20026;-78
2022/02/22 06:37:08;;;;;;;0.30;0.30;;;;;;;;;;5022639;28;20049;-78
2022/02/22 06:39:35;;;;;;;0.30;0.30;;;;;;;;;;5024168;28;20658;-81
2022/02/22 06:42:01;;;;;;;0.20;0.20;;;;;;;;;;5021635;28;20072;-80
2022/02/22 06:44:28;;;;;;;0.20;0.20;;;;;;;;;;5020673;28;20056;-80
2022/02/22 06:46:54;;;;;;;0.20;0.20;;;;;;;;;;5022871;28;20112;-81
2022/02/22 06:49:20;;;;;;;0.30;0.30;;;;;;;;;;5025594;28;20029;-85
2022/02/22 06:51:46;;;;;;;0.20;0.20;;;;;;;;;;5024467;28;20036;-86
2022/02/22 06:54:12;;;;;;;0.20;0.20;;;;;;;;;;5028139;28;20031;-84
2022/02/22 06:56:38;;;;;;;0.30;0.30;;;;;;;;;;5028057;28;20049;-86
2022/02/22 06:59:04;;;;;;;0.30;0.30;;;;;;;;;;5025054;28;20049;-85
2022/02/22 07:01:30;;;;;;;0.20;0.20;;;;;;;;;;5024377;28;20029;-82
2022/02/22 07:03:56;;;;;;;0.20;0.20;;;;;;;;;;5023820;28;20276;-82
2022/02/22 07:06:22;;;;;;;0.30;0.30;;;;;;;;;;5024840;28;20475;-82
2022/02/22 07:08:48;;;;;;;0.30;0.30;;;;;;;;;;5022477;28;20033;-83
2022/02/22 07:11:14;;;;;;;0.28;0.28;;;;;;;;;;5023087;28;20036;-83
2022/02/22 07:13:41;;;;;;;0.30;0.30;;;;;;;;;;5022908;28;20022;-83
2022/02/22 07:16:07;;;;;;;0.20;0.20;;;;;;;;;;5023660;28;20037;-83
2022/02/22 07:18:34;;;;;;;0.20;0.20;;;;;;;;;;5024361;28;20022;-84
2022/02/22 07:21:00;;;;;;;0.30;0.30;;;;;;;;;;5023033;28;20319;-81
2022/02/22 07:23:26;;;;;;;0.20;0.20;;;;;;;;;;5016112;28;20075;-83
2022/02/22 07:25:52;;;;;;;0.30;0.30;;;;;;;;;;5023290;28;20140;-81
2022/02/22 07:28:19;;;;;;;0.30;0.30;;;;;;;;;;5023160;28;20061;-82
2022/02/22 07:30:45;;;;;;;0.30;0.30;;;;;;;;;;5023197;28;20886;-82
2022/02/22 07:33:11;;;;;;;0.30;0.30;;;;;;;;;;5023637;28;20034;-83
2022/02/22 07:35:37;;;;;;;0.30;0.30;;;;;;;;;;5021428;28;20072;-85
2022/02/22 07:38:03;;;;;;;0.30;0.30;;;;;;;;;;5023155;28;20064;-83
2022/02/22 07:40:29;;;;;;;0.30;0.30;;;;;;;;;;5022215;28;20092;-84
2022/02/22 07:42:55;;;;;;;0.30;0.30;;;;;;;;;;5021129;28;20080;-82
2022/02/22 07:45:21;;;;;;;0.30;0.30;;;;;;;;;;5019378;28;20080;-93
2022/02/22 07:47:47;;;;;;;0.30;0.30;;;;;;;;;;5028887;28;20025;-93
2022/02/22 07:50:13;;;;;;;0.30;0.30;;;;;;;;;;5029266;28;20032;-92
2022/02/22 07:52:39;;;;;;;0.30;0.30;;;;;;;;;;5028718;28;20086;-93
2022/02/22 07:55:06;;;;;;;0.30;0.30;;;;;;;;;;5030484;28;20788;-93
2022/02/22 07:57:32;;;;;;;0.30;0.30;;;;;;;;;;5028907;28;20044;-93
2022/02/22 07:59:58;;;;;;;0.30;0.30;;;;;;;;;;5028688;28;20033;-92
2022/02/22 08:02:24;;;;;;;0.30;0.30;;;;;;;;;;5028128;28;20823;-92
2022/02/22 08:04:50;;;;;;;0.20;0.20;;;;;;;;;;5029111;28;20037;-81
2022/02/22 08:07:20;;;;;;;0.20;0.20;;;;;;;;;;5020948;28;20035;-81
2022/02/22 08:09:46;;;;;;;0.20;0.20;;;;;;;;;;5019087;28;20037;-81
2022/02/22 08:12:12;;;;;;;0.20;0.20;;;;;;;;;;5020824;28;20036;-80
2022/02/22 08:14:38;;;;;;;0.20;0.20;;;;;;;;;;5019199;28;20037;-80
2022/02/22 08:17:04;;;;;;;0.20;0.20;;;;;;;;;;5020965;28;20641;-81
2022/02/22 08:19:31;;;;;;;0.20;0.20;;;;;;;;;;5019764;28;20083;-81
2022/02/22 08:21:57;;;;;;;0.20;0.20;;;;;;;;;;5021249;28;20051;-81
2022/02/22 08:24:24;;;;;;;0.30;0.30;;;;;;;;;;5022484;28;20044;-81
2022/02/22 08:26:54;;;;;;;0.20;0.20;;;;;;;;;;5019659;28;20041;-80
2022/02/22 08:29:21;;;;;;;0.30;0.30;;;;;;;;;;5022331;28;20025;-81
2022/02/22 08:31:47;;;;;;;0.30;0.30;;;;;;;;;;5021514;28;20031;-80
2022/02/22 08:34:13;;;;;;;0.20;0.20;;;;;;;;;;5017152;28;20058;-81
2022/02/22 08:36:39;;;;;;;0.20;0.20;;;;;;;;;;5018843;28;20038;-81
2022/02/22 08:39:05;;;;;;;0.20;0.20;;;;;;;;;;5021376;28;20030;-81
2022/02/22 08:41:31;;;;;;;0.20;0.20;;;;;;;;;;5021493;28;20034;-80
2022/02/22 08:43:57;;;;;;;0.30;0.30;;;;;;;;;;5021239;28;20031;-81
2022/02/22 08:46:23;;;;;;;0.40;0.40;;;;;;;;;;5021551;28;20029;-81
2022/02/22 08:48:50;;;;;;;0.30;0.30;;;;;;;;;;5021366;28;20064;-80
2022/02/22 08:51:16;;;;;;;0.30;0.30;;;;;;;;;;5021874;28;20048;-81
2022/02/22 08:53:43;;;;;;;0.20;0.20;;;;;;;;;;5021086;28;20025;-81
2022/02/22 08:56:09;;;;;;;0.20;0.20;;;;;;;;;;5025064;28;20084;-81
2022/02/22 08:58:35;;;;;;;0.20;0.20;;;;;;;;;;5025311;28;20124;-80
2022/02/22 09:01:01;;;;;;;0.20;0.20;;;;;;;;;;5025272;28;20046;-80
2022/02/22 09:03:28;;;;;;;0.20;0.20;;;;;;;;;;5026143;28;20116;-81
2022/02/22 09:05:54;;;;;;;0.40;0.40;;;;;;;;;;5026249;28;20038;-88
2022/02/22 09:08:20;;;;;;;0.30;0.30;;;;;;;;;;5026495;28;20400;-87
2022/02/22 09:10:47;;;;;;;0.27;0.27;;;;;;;;;;5027206;28;20191;-88
2022/02/22 09:13:14;;;;;;;0.30;0.30;;;;;;;;;;5026650;28;20044;-88
2022/02/22 09:15:40;;;;;;;0.30;0.30;;;;;;;;;;5027581;28;20053;-89
2022/02/22 09:18:06;;;;;;;0.30;0.30;;;;;;;;;;5018187;28;20037;-88
2022/02/22 09:20:32;;;;;;;0.30;0.30;;;;;;;;;;5027481;28;20029;-89
2022/02/22 09:22:59;;;;;;;0.20;0.20;;;;;;;;;;5026853;28;20108;-88
2022/02/22 09:25:25;;;;;;;0.30;0.30;;;;;;;;;;5027648;28;20426;-89
2022/02/22 09:27:52;;;;;;;0.30;0.30;;;;;;;;;;5027511;28;20030;-88
2022/02/22 09:30:20;;;;;;;0.30;0.30;;;;;;;;;;5025752;28;20091;-88
2022/02/22 09:32:47;;;;;;;0.20;0.20;;;;;;;;;;5026688;28;20021;-88
2022/02/22 09:35:14;;;;;;;0.30;0.30;;;;;;;;;;5026696;28;20044;-88
2022/02/22 09:37:41;;;;;;;0.30;0.30;;;;;;;;;;5026929;28;20094;-88
2022/02/22 09:40:07;;;;;;;0.30;0.30;;;;;;;;;;5026748;28;20025;-89
2022/02/22 09:42:33;;;;;;;0.30;0.30;;;;;;;;;;5027628;28;20036;-88
2022/02/22 09:44:59;;;;;;;0.30;0.30;;;;;;;;;;5008705;28;20033;-88
2022/02/22 09:47:26;;;;;;;0.30;0.30;;;;;;;;;;5022511;28;20719;-88
2022/02/22 09:49:52;;;;;;;0.40;0.40;;;;;;;;;;5026320;28;20079;-89
2022/02/22 09:52:18;;;;;;;0.40;0.40;;;;;;;;;;5024480;28;20417;-88
2022/02/22 09:54:44;;;;;;;0.30;0.30;;;;;;;;;;5018816;28;20022;-88
2022/02/22 09:57:10;;;;;;;0.30;0.30;;;;;;;;;;5025737;28;20033;-89
2022/02/22 09:59:36;;;;;;;0.30;0.30;;;;;;;;;;5026234;28;20124;-88
2022/02/22 10:02:02;;;;;;;0.30;0.30;;;;;;;;;;5026080;28;20026;-87
2022/02/22 10:04:29;;;;;;;0.30;0.30;;;;;;;;;;5026349;28;20079;-87
2022/02/22 10:07:06;;;;;;;0.30;0.30;;;;;;;;;;5024949;28;20525;-87
2022/02/22 10:09:32;;;;;;;0.30;0.30;;;;;;;;;;5025238;28;20379;-88
2022/02/22 10:11:58;;;;;;;0.30;0.30;;;;;;;;;;5023343;28;20059;-87
2022/02/22 10:14:25;;;;;;;0.30;0.30;;;;;;;;;;5024730;28;20100;-87
2022/02/22 10:16:53;;;;;;;0.30;0.30;;;;;;;;;;5022741;28;20115;-87
2022/02/22 10:19:21;;;;;;;0.30;0.30;;;;;;;;;;5024628;28;20749;-86
2022/02/22 10:21:50;;;;;;;0.30;0.30;;;;;;;;;;5023295;28;20033;-86
2022/02/22 10:24:18;;;;;;;0.90;0.90;;;;;;;;;;5022155;28;20655;-86
2022/02/22 10:26:44;;;;;;;0.30;0.30;;;;;;;;;;5024003;28;20036;-87
2022/02/22 10:29:14;;;;;;;0.37;0.37;;;;;;;;;;5022291;28;20143;-86
2022/02/22 10:31:40;;;;;;;0.20;0.20;;;;;;;;;;5023893;28;20789;-86
2022/02/22 10:34:07;;;;;;;0.20;0.20;;;;;;;;;;5024228;28;20512;-86
2022/02/22 10:36:34;;;;;;;0.10;0.10;;;;;;;;;;5024234;28;20512;-87
2022/02/22 10:39:10;;;;;;;0.20;0.20;;;;;;;;;;5023495;28;20033;-86
2022/02/22 10:41:40;;;;;;;0.40;0.40;;;;;;;;;;5023695;28;20071;-86
2022/02/22 10:44:08;;;;;;;0.20;0.20;;;;;;;;;;5023490;28;20061;-87
2022/02/22 10:46:40;;;;;;;0.40;0.40;;;;;;;;;;5021832;28;20128;-87
2022/02/22 10:49:13;;;;;;;0.40;0.40;;;;;;;;;;5023648;28;20025;-87
2022/02/22 10:51:41;;;;;;;0.47;0.47;;;;;;;;;;5023038;28;20029;-86
2022/02/22 10:54:08;;;;;;;0.40;0.40;;;;;;;;;;5024202;28;20049;-88
2022/02/22 10:56:34;;;;;;;;;;;;;;;;;;5024599;28;20028;-88
2022/02/22 10:59:00;;;;;;;0.47;0.47;;;;;;;;;;5023086;28;20312;-88
2022/02/22 11:01:26;;;;;;;0.10;0.10;;;;;;;;;;5024757;28;20095;-88
2022/02/22 11:03:54;;;;;;;0.10;0.10;;;;;;;;;;5023048;28;20022;-87
2022/02/22 11:06:20;;;;;;;0.30;0.30;;;;;;;;;;5022275;28;20030;-85
2022/02/22 11:08:57;;;;;;;0.20;0.20;;;;;;;;;;5022894;28;20034;-85
2022/02/22 11:11:23;;;;;;;0.75;0.75;;;;;;;;;;5022705;28;20029;-84
2022/02/22 11:14:00;;;;;;;0.70;0.70;;;;;;;;;;5022408;28;20493;-86
2022/02/22 11:16:26;;;;;;;0.73;0.73;;;;;;;;;;5022539;28;20033;-86
2022/02/22 11:18:53;;;;;;;0.90;0.90;;;;;;;;;;5023502;28;20045;-85
2022/02/22 11:21:21;;;;;;;0.70;0.70;;;;;;;;;;5023697;28;20025;-85
2022/02/22 11:23:47;;;;;;;0.70;0.70;;;;;;;;;;5023563;28;20041;-86
2022/02/22 11:26:18;;;;;;;0.77;0.77;;;;;;;;;;5023205;28;20026;-86
2022/02/22 11:28:46;;;;;;;0.65;0.65;;;;;;;;;;5022779;28;20130;-86
2022/02/22 11:31:14;;;;;;;0.73;0.73;;;;;;;;;;5020170;28;20056;-87
2022/02/22 11:33:41;;;;;;;0.70;0.70;;;;;;;;;;5023973;28;21065;-86
2022/02/22 11:36:08;;;;;;;0.70;0.70;;;;;;;;;;5026676;28;20456;-86
2022/02/22 11:38:34;;;;;;;;;;;;;;;;;;5023057;28;20588;-86
2022/02/22 11:41:01;;;;;;;0.70;0.70;;;;;;;;;;5022264;28;19919;-86
2022/02/22 11:43:27;;;;;;;;;;;;;;;;;;5023296;28;20064;-86
2022/02/22 11:45:53;;;;;;;0.60;0.60;;;;;;;;;;5022500;28;19948;-86
2022/02/22 11:48:25;;;;;;;0.63;0.63;;;;;;;;;;5022175;28;20232;-86
2022/02/22 11:50:57;;;;;;;0.85;0.85;;;;;;;;;;5022392;28;20047;-87
2022/02/22 11:53:24;;;;;;;0.60;0.60;;;;;;;;;;5021967;28;20064;-86
2022/02/22 11:55:51;;;;;;;0.40;0.40;;;;;;;;;;5029722;28;20107;-86
2022/02/22 11:58:22;;;;;;;0.50;0.50;;;;;;;;;;5021577;28;20060;-86
2022/02/22 12:00:50;;;;;;;0.40;0.40;;;;;;;;;;5021126;28;20505;-86
2022/02/22 12:03:18;;;;;;;0.40;0.40;;;;;;;;;;5021613;28;20029;-85
2022/02/22 12:05:50;;;;;;;0.40;0.40;;;;;;;;;;5022789;28;20056;-85
2022/02/22 12:08:17;;;;;;;0.40;0.40;;;;;;;;;;5020710;28;20127;-85
2022/02/22 12:10:49;;;;;;;0.40;0.40;;;;;;;;;;5021583;28;20496;-85
2022/02/22 12:13:17;;;;;;;0.40;0.40;;;;;;;;;;5020487;28;20463;-85
2022/02/22 12:15:43;;;;;;;0.32;0.32;;;;;;;;;;5023117;28;20154;-85
2022/02/22 12:18:13;;;;;;;0.40;0.40;;;;;;;;;;5021857;28;20044;-85
2022/02/22 12:20:39;;;;;;;0.40;0.40;;;;;;;;;;5022254;28;20034;-85
2022/02/22 12:23:05;;;;;;;0.40;0.40;;;;;;;;;;5022216;28;20041;-85
2022/02/22 12:25:33;;;;;;;0.40;0.40;;;;;;;;;;5019108;28;20044;-85
2022/02/22 12:28:00;;;;;;;0.40;0.40;;;;;;;;;;5022360;28;20021;-85
2022/02/22 12:30:33;;;;;;;0.50;0.50;;;;;;;;;;5022468;28;20594;-86
2022/02/22 12:32:59;;;;;;;0.50;0.50;;;;;;;;;;5021795;28;20031;-85
2022/02/22 12:35:31;;;;;;;0.40;0.40;;;;;;;;;;5021898;28;20063;-86
2022/02/22 12:37:57;;;;;;;0.50;0.50;;;;;;;;;;5017604;28;20083;-85
2022/02/22 12:40:29;;;;;;;0.57;0.57;;;;;;;;;;5019182;28;20037;-85
2022/02/22 12:43:05;;;;;;;0.50;0.50;;;;;;;;;;5020190;28;20044;-86
2022/02/22 12:45:43;;;;;;;0.60;0.60;;;;;;;;;;5021721;28;20037;-86
2022/02/22 12:48:10;;;;;;;0.50;0.50;;;;;;;;;;5020872;28;20545;-85
2022/02/22 12:50:36;;;;;;;;;;;;;;;;;;5021537;28;20017;-86
2022/02/22 12:53:03;;;;;;;0.60;0.60;;;;;;;;;;5021729;28;19981;-86
2022/02/22 12:55:29;;;;;;;0.50;0.50;;;;;;;;;;5021821;28;20034;-86
2022/02/22 12:58:05;;;;;;;0.50;0.50;;;;;;;;;;5021890;28;20049;-86
2022/02/22 13:00:31;;;;;;;0.50;0.50;;;;;;;;;;5021519;28;20029;-86
2022/02/22 13:03:09;;;;;;;0.40;0.40;;;;;;;;;;5020694;28;20116;-86
2022/02/22 13:05:43;;;;;;;0.50;0.50;;;;;;;;;;5020900;28;20791;-86
2022/02/22 13:08:11;;;;;;;0.40;0.40;;;;;;;;;;5021753;28;20520;-86
2022/02/22 13:10:44;;;;;;;0.43;0.43;;;;;;;;;;5021047;28;20034;-86
2022/02/22 13:13:10;;;;;;;0.40;0.40;;;;;;;;;;5020922;28;20021;-86
2022/02/22 13:15:37;;;;;;;0.50;0.50;;;;;;;;;;5021873;28;20033;-86
2022/02/22 13:18:16;;;;;;;0.40;0.40;;;;;;;;;;5020849;28;20069;-87
2022/02/22 13:20:43;;;;;;;0.40;0.40;;;;;;;;;;5020958;28;20039;-86
2022/02/22 13:23:11;;;;;;;;;;;;;;;;;;5021655;28;20386;-86
2022/02/22 13:25:38;;;;;;;0.43;0.43;;;;;;;;;;5021335;28;20291;-86
2022/02/22 13:28:04;;;;;;;0.60;0.60;;;;;;;;;;5020204;28;25678;-86
2022/02/22 13:30:30;;;;;;;0.50;0.50;;;;;;;;;;5021603;28;20057;-86
2022/02/22 13:33:07;;;;;;;0.50;0.50;;;;;;;;;;5020842;28;20029;-86
2022/02/22 13:35:33;;;;;;;0.40;0.40;;;;;;;;;;5019568;28;20040;-86
2022/02/22 13:37:59;;;;;;;0.50;0.50;;;;;;;;;;5019382;28;20033;-85
2022/02/22 13:40:30;;;;;;;0.47;0.47;;;;;;;;;;5020749;28;20283;-86
2022/02/22 13:43:14;;;;;;;0.40;0.40;;;;;;;;;;5022602;28;20144;-85
2022/02/22 13:45:41;;;;;;;0.40;0.40;;;;;;;;;;5024571;28;20033;-86
2022/02/22 13:48:10;;;;;;;0.40;0.40;;;;;;;;;;5024038;28;20021;-86
2022/02/22 13:50:36;;;;;;;0.40;0.40;;;;;;;;;;5023929;28;20042;-85
2022/02/22 13:53:13;;;;;;;0.60;0.60;;;;;;;;;;5024511;28;20806;-86
2022/02/22 13:55:58;;;;;;;0.57;0.57;;;;;;;;;;5026149;28;20572;-86
2022/02/22 13:58:24;;;;;;;0.40;0.40;;;;;;;;;;5023034;28;20111;-86
2022/02/22 14:00:51;;;;;;;0.43;0.43;;;;;;;;;;5024674;28;20109;-85
2022/02/22 14:03:17;;;;;;;0.50;0.50;;;;;;;;;;5024884;28;20033;-85
2022/02/22 14:05:43;;;;;;;0.40;0.40;;;;;;;;;;5025242;28;20044;-85
2022/02/22 14:08:12;;;;;;;0.40;0.40;;;;;;;;;;5025590;28;20064;-85
2022/02/22 14:10:39;;;;;;;0.45;0.45;;;;;;;;;;5024855;28;20276;-86
2022/02/22 14:13:05;;;;;;;0.40;0.40;;;;;;;;;;5025352;28;20108;-86
2022/02/22 14:15:32;;;;;;;0.45;0.45;;;;;;;;;;5025460;28;20158;-86
2022/02/22 14:17:58;;;;;;;0.40;0.40;;;;;;;;;;5024696;28;20072;-86
2022/02/22 14:20:26;;;;;;;0.30;0.30;;;;;;;;;;5024940;28;20033;-85
2022/02/22 14:22:52;;;;;;;0.40;0.40;;;;;;;;;;5024944;28;20539;-85
2022/02/22 14:25:20;;;;;;;0.47;0.47;;;;;;;;;;5024863;28;20432;-85
2022/02/22 14:27:46;;;;;;;0.40;0.40;;;;;;;;;;5024948;28;20362;-85
2022/02/22 14:30:12;;;;;;;0.40;0.40;;;;;;;;;;5024854;28;20064;-86
2022/02/22 14:32:38;;;;;;;0.50;0.50;;;;;;;;;;5024237;28;20098;-85
2022/02/22 14:35:04;;;;;;;0.50;0.50;;;;;;;;;;5024234;28;20497;-86
2022/02/22 14:37:30;;;;;;;0.70;0.70;;;;;;;;;;5024033;28;20140;-86
2022/02/22 14:39:56;;;;;;;0.40;0.40;;;;;;;;;;5024906;28;20428;-86
2022/02/22 14:42:23;;;;;;;0.50;0.50;;;;;;;;;;5023832;28;20286;-86
2022/02/22 14:44:49;;;;;;;0.40;0.40;;;;;;;;;;5024685;28;20715;-85